createdAt,value
2018-12-15T00:01:35.995Z,57.65
2018-12-15T00:04:07.637Z,58.38
2018-12-15T00:06:44.740Z,57.76
2018-12-15T00:09:15.512Z,58.16
2018-12-15T00:11:46.037Z,57.89
2018-12-15T00:14:13.440Z,58.16
2018-12-15T00:16:44.178Z,57.06
2018-12-15T00:19:11.604Z,56.90
2018-12-15T00:21:39.956Z,57.23
2018-12-15T00:24:07.346Z,56.82
2018-12-15T00:26:40.344Z,57.08
2018-12-15T00:29:07.748Z,57.40
2018-12-15T00:31:35.152Z,57.64
2018-12-15T00:34:08.594Z,57.19
2018-12-15T00:36:35.991Z,57.08
2018-12-15T00:39:05.060Z,57.97
2018-12-15T00:41:32.467Z,57.55
2018-12-15T00:43:59.863Z,56.49
2018-12-15T00:46:27.284Z,56.95
2018-12-15T00:48:54.690Z,56.10
2018-12-15T00:51:22.497Z,57.55
2018-12-15T00:53:49.906Z,56.96
2018-12-15T00:56:17.328Z,55.83
2018-12-15T00:58:51.171Z,58.31
2018-12-15T01:01:25.236Z,56.76
2018-12-15T01:03:57.362Z,58.26
2018-12-15T01:06:28.501Z,59.67
2018-12-15T01:08:57.441Z,57.30
2018-12-15T01:11:39.471Z,56.35
2018-12-15T01:14:10.505Z,57.22
2018-12-15T01:16:39.665Z,57.50
2018-12-15T01:19:10.631Z,57.21
2018-12-15T01:21:44.534Z,56.13
2018-12-15T01:24:14.896Z,56.53
2018-12-15T01:26:48.868Z,56.80
2018-12-15T01:29:20.042Z,56.70
2018-12-15T01:34:28.035Z,56.84
2018-12-15T01:37:01.153Z,58.22
2018-12-15T01:39:32.404Z,57.40
2018-12-15T01:42:06.340Z,55.97
2018-12-15T01:44:46.257Z,57.14
2018-12-15T01:47:19.681Z,60.56
2018-12-15T01:49:49.000Z,58.38
2018-12-15T01:52:21.952Z,57.84
2018-12-15T01:54:53.056Z,55.91
2018-12-15T02:00:20.091Z,56.69
2018-12-15T02:02:47.489Z,56.85
2018-12-15T02:05:14.893Z,56.53
2018-12-15T02:07:42.280Z,55.70
2018-12-15T02:10:09.781Z,56.91
2018-12-15T02:12:37.236Z,57.30
2018-12-15T02:15:06.156Z,58.56
2018-12-15T02:17:33.873Z,59.52
2018-12-15T02:20:01.420Z,59.21
2018-12-15T02:22:28.857Z,57.68
2018-12-15T02:24:56.274Z,57.44
2018-12-15T02:27:23.655Z,60.24
2018-12-15T02:29:51.083Z,56.42
2018-12-15T02:32:18.502Z,59.97
2018-12-15T02:34:45.892Z,59.58
2018-12-15T02:37:13.288Z,59.54
2018-12-15T02:39:40.681Z,60.92
2018-12-15T02:42:08.097Z,57.67
2018-12-15T02:44:35.490Z,57.69
2018-12-15T02:47:02.934Z,57.88
2018-12-15T02:49:31.049Z,57.75
2018-12-15T02:51:58.445Z,58.22
2018-12-15T02:54:25.837Z,57.02
2018-12-15T02:56:53.243Z,56.60
2018-12-15T02:59:20.630Z,57.84
2018-12-15T03:01:48.106Z,60.64
2018-12-15T03:04:15.584Z,57.17
2018-12-15T03:06:42.994Z,57.19
2018-12-15T03:09:10.442Z,57.66
2018-12-15T03:11:37.957Z,59.05
2018-12-15T03:14:05.370Z,60.72
2018-12-15T03:16:32.831Z,57.53
2018-12-15T03:19:04.129Z,58.72
2018-12-15T03:21:31.522Z,58.95
2018-12-15T03:23:58.932Z,58.84
2018-12-15T03:26:26.323Z,57.17
2018-12-15T03:28:54.666Z,55.88
2018-12-15T03:31:22.063Z,56.07
2018-12-15T03:33:49.480Z,59.48
2018-12-15T03:36:17.104Z,56.31
2018-12-15T03:38:44.522Z,57.31
2018-12-15T03:41:11.908Z,55.47
2018-12-15T03:43:39.307Z,57.34
2018-12-15T03:46:06.695Z,57.87
2018-12-15T03:48:34.125Z,58.45
2018-12-15T03:51:01.651Z,57.03
2018-12-15T03:53:29.093Z,55.85
2018-12-15T03:55:56.497Z,56.23
2018-12-15T03:58:23.893Z,57.80
2018-12-15T04:00:51.368Z,57.95
2018-12-15T04:03:18.785Z,58.91
2018-12-15T04:05:46.168Z,56.63
2018-12-15T04:08:13.580Z,57.94
2018-12-15T04:10:40.968Z,60.31
2018-12-15T04:13:09.305Z,59.62
2018-12-15T04:15:36.889Z,57.07
2018-12-15T04:18:04.287Z,59.38
2018-12-15T04:20:35.750Z,58.19
2018-12-15T04:23:03.239Z,59.70
2018-12-15T04:25:30.627Z,57.58
2018-12-15T04:27:58.020Z,56.84
2018-12-15T04:30:25.427Z,56.67
2018-12-15T04:32:52.808Z,57.60
2018-12-15T04:35:20.208Z,56.92
2018-12-15T04:37:47.596Z,56.97
2018-12-15T04:40:15.046Z,57.79
2018-12-15T04:42:42.440Z,58.37
2018-12-15T04:45:09.832Z,57.63
2018-12-15T04:47:37.226Z,57.55
2018-12-15T04:50:04.685Z,57.90
2018-12-15T04:52:32.061Z,57.43
2018-12-15T04:54:59.534Z,59.76
2018-12-15T04:57:26.957Z,57.86
2018-12-15T04:59:54.407Z,58.34
2018-12-15T05:02:21.796Z,60.20
2018-12-15T05:04:49.197Z,57.58
2018-12-15T05:07:16.576Z,60.02
2018-12-15T05:09:43.968Z,57.92
2018-12-15T05:12:11.367Z,58.58
2018-12-15T05:14:38.765Z,61.43
2018-12-15T05:17:07.069Z,60.41
2018-12-15T05:19:34.457Z,57.98
2018-12-15T05:22:02.399Z,61.33
2018-12-15T05:24:29.797Z,57.44
2018-12-15T05:26:57.186Z,59.22
2018-12-15T05:29:24.576Z,59.57
2018-12-15T05:31:51.968Z,59.08
2018-12-15T05:34:19.357Z,59.81
2018-12-15T05:36:46.761Z,59.03
2018-12-15T05:39:14.152Z,58.50
2018-12-15T05:41:41.555Z,58.73
2018-12-15T05:44:09.043Z,58.57
2018-12-15T05:46:36.444Z,62.89
2018-12-15T05:49:03.827Z,60.52
2018-12-15T05:51:31.232Z,58.30
2018-12-15T05:53:58.627Z,59.00
2018-12-15T05:56:26.024Z,58.62
2018-12-15T05:58:53.411Z,59.67
2018-12-15T06:01:20.803Z,58.63
2018-12-15T06:03:48.204Z,58.43
2018-12-15T06:06:15.604Z,59.40
2018-12-15T06:08:42.995Z,58.90
2018-12-15T06:11:10.444Z,59.66
2018-12-15T06:13:37.855Z,59.00
2018-12-15T06:16:05.253Z,59.01
2018-12-15T06:18:32.635Z,58.97
2018-12-15T06:21:00.037Z,59.43
2018-12-15T06:23:27.436Z,59.46
2018-12-15T06:28:53.829Z,60.08
2018-12-15T06:31:21.216Z,60.03
2018-12-15T06:33:48.615Z,62.25
2018-12-15T06:36:16.019Z,60.41
2018-12-15T06:38:43.496Z,59.82
2018-12-15T06:41:11.841Z,59.72
2018-12-15T06:43:39.495Z,60.33
2018-12-15T06:46:07.204Z,60.08
2018-12-15T06:48:38.118Z,59.73
2018-12-15T06:51:04.016Z,59.64
2018-12-15T06:53:31.420Z,59.95
2018-12-15T06:55:59.899Z,61.06
2018-12-15T06:58:27.279Z,59.96
2018-12-15T07:00:54.673Z,60.26
2018-12-15T07:03:22.072Z,60.13
2018-12-15T07:05:49.470Z,60.34
2018-12-15T07:08:16.919Z,61.77
2018-12-15T07:10:44.292Z,59.78
2018-12-15T07:13:11.713Z,61.83
2018-12-15T07:15:39.175Z,61.12
2018-12-15T07:18:07.496Z,60.83
2018-12-15T07:20:34.904Z,61.10
2018-12-15T07:23:02.312Z,60.72
2018-12-15T07:25:29.833Z,61.15
2018-12-15T07:27:57.230Z,61.51
2018-12-15T07:30:24.884Z,61.71
2018-12-15T07:32:52.823Z,62.04
2018-12-15T07:35:20.217Z,62.46
2018-12-15T07:37:47.811Z,61.66
2018-12-15T07:40:15.315Z,62.07
2018-12-15T07:42:42.810Z,62.48
2018-12-15T07:45:10.209Z,62.42
2018-12-15T07:47:46.515Z,62.40
2018-12-15T07:50:14.144Z,62.57
2018-12-15T07:52:43.448Z,63.05
2018-12-15T07:55:10.843Z,62.55
2018-12-15T07:57:38.454Z,62.29
2018-12-15T08:00:09.047Z,63.53
2018-12-15T08:02:36.504Z,65.69
2018-12-15T08:05:05.221Z,62.74
2018-12-15T08:07:34.706Z,62.99
2018-12-15T08:10:04.219Z,62.57
2018-12-15T08:12:39.595Z,63.44
2018-12-15T08:15:07.537Z,62.82
2018-12-15T08:17:34.931Z,64.01
2018-12-15T08:20:04.717Z,62.93
2018-12-15T08:22:32.112Z,63.44
2018-12-15T08:24:59.552Z,63.34
2018-12-15T08:27:27.096Z,64.01
2018-12-15T08:29:54.475Z,63.70
2018-12-15T08:32:21.880Z,63.75
2018-12-15T08:34:49.295Z,64.12
2018-12-15T08:37:16.740Z,63.65
2018-12-15T08:39:44.142Z,63.67
2018-12-15T08:42:11.545Z,63.85
2018-12-15T08:44:39.017Z,63.87
2018-12-15T08:47:09.878Z,64.75
2018-12-15T08:49:37.407Z,63.95
2018-12-15T08:52:04.791Z,64.62
2018-12-15T08:54:32.183Z,64.20
2018-12-15T08:56:59.580Z,64.88
2018-12-15T08:59:27.942Z,64.97
2018-12-15T09:01:55.401Z,64.59
2018-12-15T09:04:22.784Z,64.90
2018-12-15T09:06:50.235Z,63.69
2018-12-15T09:09:17.663Z,64.78
2018-12-15T09:11:46.062Z,64.70
2018-12-15T09:14:13.447Z,64.25
2018-12-15T09:16:40.968Z,63.92
2018-12-15T09:19:11.236Z,64.48
2018-12-15T09:21:37.758Z,64.08
2018-12-15T09:24:05.143Z,63.97
2018-12-15T09:26:32.535Z,64.46
2018-12-15T09:28:59.937Z,64.56
2018-12-15T09:31:29.294Z,64.18
2018-12-15T09:33:56.683Z,64.34
2018-12-15T09:36:24.088Z,64.52
2018-12-15T09:38:51.485Z,64.73
2018-12-15T09:41:18.974Z,64.12
2018-12-15T09:43:51.155Z,63.94
2018-12-15T09:46:18.656Z,63.93
2018-12-15T09:48:51.971Z,64.82
2018-12-15T09:51:19.380Z,64.11
2018-12-15T09:53:46.793Z,65.31
2018-12-15T09:56:14.204Z,64.14
2018-12-15T09:58:41.616Z,63.04
2018-12-15T10:01:09.114Z,64.50
2018-12-15T10:03:36.846Z,63.69
2018-12-15T10:06:06.516Z,64.24
2018-12-15T10:08:34.881Z,64.08
2018-12-15T10:11:03.829Z,63.48
2018-12-15T10:13:31.263Z,63.74
2018-12-15T10:15:58.734Z,63.14
2018-12-15T10:18:26.135Z,62.50
2018-12-15T10:20:53.560Z,62.83
2018-12-15T10:23:20.965Z,63.45
2018-12-15T10:25:48.372Z,63.25
2018-12-15T10:28:17.739Z,63.41
2018-12-15T10:30:50.644Z,62.82
2018-12-15T10:33:18.066Z,63.32
2018-12-15T10:35:46.436Z,63.20
2018-12-15T10:38:13.836Z,62.42
2018-12-15T10:40:41.282Z,62.57
2018-12-15T10:43:08.689Z,62.70
2018-12-15T10:45:36.097Z,63.13
2018-12-15T10:48:04.508Z,62.51
2018-12-15T10:50:31.968Z,62.07
2018-12-15T10:52:59.364Z,61.94
2018-12-15T10:55:27.737Z,61.05
2018-12-15T10:57:56.209Z,62.78
2018-12-15T11:00:26.431Z,61.58
2018-12-15T11:02:59.299Z,62.53
2018-12-15T11:05:26.707Z,61.73
2018-12-15T11:07:54.127Z,61.85
2018-12-15T11:10:25.065Z,60.98
2018-12-15T11:12:55.589Z,61.15
2018-12-15T11:15:23.967Z,61.50
2018-12-15T11:17:53.548Z,61.00
2018-12-15T11:20:21.979Z,61.01
2018-12-15T11:22:49.392Z,60.89
2018-12-15T11:25:16.804Z,60.54
2018-12-15T11:27:45.157Z,60.93
2018-12-15T11:30:12.568Z,60.71
2018-12-15T11:32:39.951Z,61.19
2018-12-15T11:35:07.414Z,60.53
2018-12-15T11:37:34.916Z,60.81
2018-12-15T11:40:08.456Z,60.94
2018-12-15T11:42:36.977Z,60.78
2018-12-15T11:45:05.376Z,60.58
2018-12-15T11:47:33.775Z,60.42
2018-12-15T11:50:01.186Z,60.28
2018-12-15T11:52:28.611Z,60.91
2018-12-15T11:54:56.026Z,60.93
2018-12-15T11:57:31.359Z,60.43
2018-12-15T11:59:59.717Z,61.15
2018-12-15T12:02:31.836Z,60.95
2018-12-15T12:05:01.251Z,60.67
2018-12-15T12:07:28.752Z,62.01
2018-12-15T12:09:56.336Z,60.33
2018-12-15T12:12:24.679Z,60.63
2018-12-15T12:14:52.115Z,60.43
2018-12-15T12:17:21.577Z,60.82
2018-12-15T12:19:50.375Z,61.00
2018-12-15T12:22:18.073Z,60.71
2018-12-15T12:24:49.134Z,61.08
2018-12-15T12:27:16.535Z,61.09
2018-12-15T12:29:47.328Z,60.93
2018-12-15T12:32:25.486Z,60.67
2018-12-15T12:34:52.898Z,60.54
2018-12-15T12:37:28.504Z,60.92
2018-12-15T12:39:56.911Z,61.12
2018-12-15T12:42:28.761Z,61.09
2018-12-15T12:44:57.250Z,60.96
2018-12-15T12:47:28.825Z,61.63
2018-12-15T12:49:59.452Z,61.05
2018-12-15T12:52:26.940Z,61.01
2018-12-15T12:54:55.273Z,61.37
2018-12-15T12:57:22.671Z,60.89
2018-12-15T12:59:52.361Z,60.55
2018-12-15T13:02:27.741Z,61.18
2018-12-15T13:07:58.903Z,61.05
2018-12-15T13:10:28.240Z,61.09
2018-12-15T13:12:55.625Z,60.68
2018-12-15T13:15:23.979Z,61.00
2018-12-15T13:17:51.379Z,61.42
2018-12-15T13:20:18.873Z,61.56
2018-12-15T13:22:46.268Z,61.12
2018-12-15T13:25:13.676Z,61.83
2018-12-15T13:27:41.118Z,61.46
2018-12-15T13:30:09.489Z,61.25
2018-12-15T13:32:36.870Z,61.04
2018-12-15T13:35:05.120Z,60.83
2018-12-15T13:37:38.391Z,61.14
2018-12-15T13:40:06.413Z,61.23
2018-12-15T13:42:33.801Z,61.44
2018-12-15T13:45:01.217Z,61.37
2018-12-15T13:47:28.608Z,61.61
2018-12-15T13:49:56.065Z,62.13
2018-12-15T13:52:23.463Z,61.38
2018-12-15T13:54:50.865Z,62.09
2018-12-15T13:57:18.276Z,60.88
2018-12-15T13:59:45.672Z,61.69
2018-12-15T14:02:13.148Z,60.95
2018-12-15T14:04:40.544Z,61.24
2018-12-15T14:07:08.858Z,61.45
2018-12-15T14:09:36.268Z,61.60
2018-12-15T14:12:03.664Z,61.83
2018-12-15T14:14:31.056Z,62.26
2018-12-15T14:16:58.457Z,62.23
2018-12-15T14:19:25.863Z,62.11
2018-12-15T14:21:53.266Z,61.90
2018-12-15T14:24:20.660Z,61.62
2018-12-15T14:26:48.058Z,62.07
2018-12-15T14:29:16.417Z,62.14
2018-12-15T14:31:43.826Z,62.17
2018-12-15T14:34:11.222Z,62.17
2018-12-15T14:36:38.623Z,62.38
2018-12-15T14:39:06.524Z,62.93
2018-12-15T14:41:33.928Z,62.27
2018-12-15T14:44:01.328Z,62.91
2018-12-15T14:46:28.745Z,62.56
2018-12-15T14:48:56.147Z,62.82
2018-12-15T14:51:23.552Z,62.21
2018-12-15T14:53:51.011Z,62.74
2018-12-15T14:56:18.452Z,62.67
2018-12-15T14:58:45.836Z,62.51
2018-12-15T15:01:13.239Z,62.61
2018-12-15T15:03:40.635Z,63.19
2018-12-15T15:06:08.049Z,62.28
2018-12-15T15:08:35.454Z,63.11
2018-12-15T15:11:02.929Z,63.01
2018-12-15T15:13:34.481Z,62.80
2018-12-15T15:15:59.720Z,62.88
2018-12-15T15:18:27.130Z,63.07
2018-12-15T15:20:54.536Z,62.77
2018-12-15T15:23:21.945Z,62.77
2018-12-15T15:25:49.325Z,63.12
2018-12-15T15:28:16.803Z,63.26
2018-12-15T15:30:44.209Z,63.00
2018-12-15T15:33:11.603Z,63.13
2018-12-15T15:35:39.055Z,63.31
2018-12-15T15:38:06.452Z,63.25
2018-12-15T15:40:33.846Z,63.53
2018-12-15T15:43:01.241Z,63.68
2018-12-15T15:45:28.636Z,63.83
2018-12-15T15:47:56.034Z,63.30
2018-12-15T15:50:23.471Z,63.65
2018-12-15T15:52:50.874Z,63.52
2018-12-15T15:55:18.605Z,63.81
2018-12-15T15:57:52.315Z,63.87
2018-12-15T16:00:19.813Z,63.91
2018-12-15T16:02:47.216Z,64.25
2018-12-15T16:05:14.662Z,64.30
2018-12-15T16:07:42.079Z,64.27
2018-12-15T16:10:09.806Z,64.27
2018-12-15T16:12:37.343Z,64.26
2018-12-15T16:15:06.464Z,64.42
2018-12-15T16:17:33.947Z,64.02
2018-12-15T16:20:01.356Z,64.33
2018-12-15T16:22:35.975Z,64.52
2018-12-15T16:25:10.119Z,64.48
2018-12-15T16:27:49.816Z,64.60
2018-12-15T16:30:18.595Z,64.61
2018-12-15T16:32:52.251Z,64.84
2018-12-15T16:35:25.961Z,64.24
2018-12-15T16:37:59.068Z,64.25
2018-12-15T16:40:33.010Z,64.18
2018-12-15T16:43:04.228Z,64.01
2018-12-15T16:45:37.289Z,64.35
2018-12-15T16:48:06.352Z,64.31
2018-12-15T16:50:37.252Z,64.62
2018-12-15T16:53:10.438Z,64.55
2018-12-15T16:55:38.105Z,64.44
2018-12-15T16:58:05.583Z,64.30
2018-12-15T17:00:32.976Z,64.66
2018-12-15T17:03:00.368Z,64.84
2018-12-15T17:05:27.773Z,64.42
2018-12-15T17:07:55.171Z,65.09
2018-12-15T17:10:22.595Z,65.27
2018-12-15T17:12:49.978Z,65.29
2018-12-15T17:15:17.376Z,65.30
2018-12-15T17:17:44.780Z,65.39
2018-12-15T17:20:12.285Z,64.99
2018-12-15T17:22:39.676Z,65.26
2018-12-15T17:25:07.477Z,65.03
2018-12-15T17:27:34.905Z,64.50
2018-12-15T17:30:02.373Z,64.78
2018-12-15T17:32:29.798Z,64.91
2018-12-15T17:34:57.191Z,64.88
2018-12-15T17:37:24.606Z,64.54
2018-12-15T17:39:52.110Z,65.02
2018-12-15T17:42:19.491Z,64.94
2018-12-15T17:44:46.904Z,65.18
2018-12-15T17:47:14.392Z,65.30
2018-12-15T17:49:41.785Z,65.40
2018-12-15T17:52:09.183Z,65.10
2018-12-15T17:54:43.261Z,65.79
2018-12-15T17:57:21.148Z,65.59
2018-12-15T17:59:53.476Z,65.75
2018-12-15T18:02:25.638Z,65.96
2018-12-15T18:04:59.427Z,65.82
2018-12-15T18:07:30.484Z,65.72
2018-12-15T18:10:05.096Z,66.13
2018-12-15T18:12:34.713Z,66.06
2018-12-15T18:15:06.095Z,66.34
2018-12-15T18:17:39.460Z,66.21
2018-12-15T18:20:14.258Z,66.37
2018-12-15T18:22:48.464Z,66.40
2018-12-15T18:25:18.726Z,67.16
2018-12-15T18:27:49.540Z,66.48
2018-12-15T18:30:21.856Z,66.79
2018-12-15T18:32:52.975Z,66.63
2018-12-15T18:35:35.292Z,66.99
2018-12-15T18:38:12.599Z,66.83
2018-12-15T18:40:45.924Z,67.26
2018-12-15T18:43:19.057Z,66.62
2018-12-15T18:45:51.224Z,66.85
2018-12-15T18:48:22.164Z,67.14
2018-12-15T18:50:53.313Z,66.92
2018-12-15T18:53:28.387Z,67.45
2018-12-15T18:56:01.570Z,67.73
2018-12-15T18:58:33.181Z,67.78
2018-12-15T19:01:07.024Z,67.75
2018-12-15T19:03:37.793Z,67.67
2018-12-15T19:06:08.677Z,67.58
2018-12-15T19:08:46.144Z,68.13
2018-12-15T19:11:20.176Z,67.76
2018-12-15T19:13:54.556Z,67.69
2018-12-15T19:16:25.327Z,67.86
2018-12-15T19:18:58.827Z,68.13
2018-12-15T19:21:33.007Z,67.76
2018-12-15T19:24:06.232Z,67.89
2018-12-15T19:26:41.045Z,67.86
2018-12-15T19:29:10.149Z,67.99
2018-12-15T19:31:41.300Z,68.08
2018-12-15T19:34:17.615Z,67.87
2018-12-15T19:36:47.989Z,67.47
2018-12-15T19:39:20.076Z,68.24
2018-12-15T19:41:51.043Z,67.93
2018-12-15T19:44:21.883Z,67.72
2018-12-15T19:46:55.616Z,68.16
2018-12-15T19:49:29.036Z,68.27
2018-12-15T19:52:01.197Z,67.83
2018-12-15T19:54:37.007Z,68.56
2018-12-15T19:57:10.087Z,68.03
2018-12-15T19:59:45.989Z,67.71
2018-12-15T20:02:16.524Z,68.26
2018-12-15T20:04:56.441Z,68.57
2018-12-15T20:07:31.481Z,67.74
2018-12-15T20:10:05.356Z,67.80
2018-12-15T20:12:39.161Z,67.86
2018-12-15T20:15:11.353Z,68.01
2018-12-15T20:17:42.864Z,68.59
2018-12-15T20:20:14.604Z,68.04
2018-12-15T20:22:45.848Z,68.36
2018-12-15T20:25:16.988Z,67.91
2018-12-15T20:27:54.657Z,67.74
2018-12-15T20:30:26.965Z,68.50
2018-12-15T20:32:58.925Z,68.75
2018-12-15T20:35:30.050Z,68.49
2018-12-15T20:38:05.896Z,68.34
2018-12-15T20:40:40.945Z,68.54
2018-12-15T20:43:14.627Z,68.51
2018-12-15T20:45:45.763Z,68.33
2018-12-15T20:48:17.775Z,68.49
2018-12-15T20:50:48.621Z,68.53
2018-12-15T20:53:20.773Z,68.58
2018-12-15T20:55:52.727Z,68.24
2018-12-15T20:58:23.845Z,68.57
2018-12-15T21:00:58.559Z,68.56
2018-12-15T21:03:32.716Z,68.00
2018-12-15T21:06:04.670Z,67.98
2018-12-15T21:08:38.572Z,68.05
2018-12-15T21:11:25.667Z,68.07
2018-12-15T21:13:57.872Z,67.93
2018-12-15T21:16:28.760Z,67.79
2018-12-15T21:19:02.736Z,67.34
2018-12-15T21:21:36.623Z,67.29
2018-12-15T21:24:07.843Z,67.16
2018-12-15T21:26:40.854Z,66.90
2018-12-15T21:29:11.800Z,67.34
2018-12-15T21:31:43.009Z,67.11
2018-12-15T21:34:14.297Z,67.08
2018-12-15T21:36:45.032Z,67.35
2018-12-15T21:39:16.052Z,66.88
2018-12-15T21:44:12.616Z,66.99
2018-12-15T21:46:45.813Z,67.66
2018-12-15T21:49:19.830Z,66.97
2018-12-15T21:51:56.100Z,67.16
2018-12-15T21:54:25.351Z,66.80
2018-12-15T21:56:56.555Z,66.69
2018-12-15T21:59:30.538Z,67.16
2018-12-15T22:02:06.858Z,67.37
2018-12-15T22:04:38.863Z,67.14
2018-12-15T22:07:13.721Z,67.11
2018-12-15T22:09:47.596Z,67.04
2018-12-15T22:12:23.527Z,67.36
2018-12-15T22:14:57.500Z,67.41
2018-12-15T22:17:38.948Z,67.29
2018-12-15T22:20:10.404Z,67.04
2018-12-15T22:22:41.697Z,67.24
2018-12-15T22:25:12.907Z,66.92
2018-12-15T22:27:46.593Z,67.25
2018-12-15T22:30:16.904Z,67.38
2018-12-15T22:32:49.160Z,67.21
2018-12-15T22:35:20.163Z,67.07
2018-12-15T22:37:51.188Z,67.13
2018-12-15T22:40:20.259Z,67.35
2018-12-15T22:45:19.381Z,67.22
2018-12-15T22:47:50.305Z,67.29
2018-12-15T22:50:28.126Z,67.13
2018-12-15T22:52:58.680Z,66.98
2018-12-15T22:55:32.379Z,67.37
2018-12-15T22:58:23.237Z,66.70
2018-12-15T23:03:51.988Z,66.77
2018-12-15T23:06:19.483Z,67.28
2018-12-15T23:08:46.980Z,66.73
2018-12-15T23:11:16.428Z,67.24
2018-12-15T23:13:43.839Z,67.10
2018-12-15T23:16:11.232Z,67.00
2018-12-15T23:18:38.675Z,66.98
2018-12-15T23:21:06.087Z,67.30
2018-12-15T23:23:33.487Z,67.34
2018-12-15T23:26:00.915Z,67.05
2018-12-15T23:28:28.317Z,68.11
2018-12-15T23:30:55.723Z,67.07
2018-12-15T23:33:33.429Z,67.67
2018-12-15T23:36:07.225Z,67.32
2018-12-15T23:38:40.999Z,67.54
2018-12-15T23:41:14.835Z,67.46
2018-12-15T23:43:56.172Z,67.51
2018-12-15T23:46:26.693Z,67.19
2018-12-15T23:48:54.094Z,67.31
2018-12-15T23:51:28.081Z,67.32
2018-12-15T23:54:01.767Z,67.71
2018-12-15T23:56:35.268Z,67.75
2018-12-15T23:59:06.197Z,67.75
